sensor_id;sensor_type;location;lat;lon;timestamp;P1;durP1;ratioP1;P2;durP2;ratioP2
12480;SDS011;6305;48.398;11.762;2023-03-14T00:00:58;0.60;;;0.60;;
12480;SDS011;6305;48.398;11.762;2023-03-14T00:03:27;0.50;;;0.50;;
12480;SDS011;6305;48.398;11.762;2023-03-14T00:05:54;0.80;;;0.80;;
12480;SDS011;6305;48.398;11.762;2023-03-14T00:08:21;0.73;;;0.70;;
12480;SDS011;6305;48.398;11.762;2023-03-14T00:10:50;0.57;;;0.50;;
12480;SDS011;6305;48.398;11.762;2023-03-14T00:13:16;0.75;;;0.70;;
12480;SDS011;6305;48.398;11.762;2023-03-14T00:15:43;0.50;;;0.43;;
12480;SDS011;6305;48.398;11.762;2023-03-14T00:18:11;1.92;;;0.60;;
12480;SDS011;6305;48.398;11.762;2023-03-14T00:20:39;0.73;;;0.60;;
12480;SDS011;6305;48.398;11.762;2023-03-14T00:23:06;0.77;;;0.70;;
12480;SDS011;6305;48.398;11.762;2023-03-14T00:25:35;0.80;;;0.73;;
12480;SDS011;6305;48.398;11.762;2023-03-14T00:28:02;1.40;;;0.77;;
12480;SDS011;6305;48.398;11.762;2023-03-14T00:30:29;1.02;;;0.50;;
12480;SDS011;6305;48.398;11.762;2023-03-14T00:32:56;0.93;;;0.50;;
12480;SDS011;6305;48.398;11.762;2023-03-14T00:35:24;0.45;;;0.43;;
12480;SDS011;6305;48.398;11.762;2023-03-14T00:37:53;0.60;;;0.50;;
12480;SDS011;6305;48.398;11.762;2023-03-14T00:40:20;0.63;;;0.63;;
12480;SDS011;6305;48.398;11.762;2023-03-14T00:42:48;0.52;;;0.50;;
12480;SDS011;6305;48.398;11.762;2023-03-14T00:45:15;0.60;;;0.50;;
12480;SDS011;6305;48.398;11.762;2023-03-14T00:47:42;0.90;;;0.50;;
12480;SDS011;6305;48.398;11.762;2023-03-14T00:50:10;0.88;;;0.68;;
12480;SDS011;6305;48.398;11.762;2023-03-14T00:52:38;1.15;;;0.68;;
12480;SDS011;6305;48.398;11.762;2023-03-14T00:55:07;0.50;;;0.50;;
12480;SDS011;6305;48.398;11.762;2023-03-14T00:57:34;0.40;;;0.40;;
12480;SDS011;6305;48.398;11.762;2023-03-14T01:00:01;0.40;;;0.40;;
12480;SDS011;6305;48.398;11.762;2023-03-14T01:02:31;0.45;;;0.45;;
12480;SDS011;6305;48.398;11.762;2023-03-14T01:04:58;0.52;;;0.52;;
12480;SDS011;6305;48.398;11.762;2023-03-14T01:07:25;0.40;;;0.40;;
12480;SDS011;6305;48.398;11.762;2023-03-14T01:09:52;1.70;;;0.50;;
12480;SDS011;6305;48.398;11.762;2023-03-14T01:12:20;0.50;;;0.50;;
12480;SDS011;6305;48.398;11.762;2023-03-14T01:14:47;0.30;;;0.30;;
12480;SDS011;6305;48.398;11.762;2023-03-14T01:17:14;0.57;;;0.50;;
12480;SDS011;6305;48.398;11.762;2023-03-14T01:19:41;1.75;;;0.47;;
12480;SDS011;6305;48.398;11.762;2023-03-14T01:22:08;0.40;;;0.40;;
12480;SDS011;6305;48.398;11.762;2023-03-14T01:24:36;1.90;;;0.60;;
12480;SDS011;6305;48.398;11.762;2023-03-14T01:27:04;0.88;;;0.68;;
12480;SDS011;6305;48.398;11.762;2023-03-14T01:29:32;1.33;;;0.60;;
12480;SDS011;6305;48.398;11.762;2023-03-14T01:31:59;1.02;;;0.93;;
12480;SDS011;6305;48.398;11.762;2023-03-14T01:34:26;2.25;;;1.15;;
12480;SDS011;6305;48.398;11.762;2023-03-14T01:36:53;2.97;;;1.60;;
12480;SDS011;6305;48.398;11.762;2023-03-14T01:39:20;1.95;;;1.00;;
12480;SDS011;6305;48.398;11.762;2023-03-14T01:41:47;1.98;;;1.10;;
12480;SDS011;6305;48.398;11.762;2023-03-14T01:44:15;2.03;;;0.80;;
12480;SDS011;6305;48.398;11.762;2023-03-14T01:46:45;1.25;;;0.88;;
12480;SDS011;6305;48.398;11.762;2023-03-14T01:49:21;1.30;;;0.85;;
12480;SDS011;6305;48.398;11.762;2023-03-14T01:51:58;1.60;;;0.80;;
12480;SDS011;6305;48.398;11.762;2023-03-14T01:54:28;1.60;;;0.80;;
12480;SDS011;6305;48.398;11.762;2023-03-14T01:57:02;0.88;;;0.50;;
12480;SDS011;6305;48.398;11.762;2023-03-14T01:59:33;0.90;;;0.70;;
12480;SDS011;6305;48.398;11.762;2023-03-14T02:02:04;0.82;;;0.50;;
12480;SDS011;6305;48.398;11.762;2023-03-14T02:04:34;1.00;;;0.60;;
12480;SDS011;6305;48.398;11.762;2023-03-14T02:07:04;1.65;;;0.60;;
12480;SDS011;6305;48.398;11.762;2023-03-14T02:09:38;1.55;;;0.50;;
12480;SDS011;6305;48.398;11.762;2023-03-14T02:12:08;1.02;;;0.55;;
12480;SDS011;6305;48.398;11.762;2023-03-14T02:15:04;1.85;;;0.70;;
12480;SDS011;6305;48.398;11.762;2023-03-14T02:17:52;0.98;;;0.57;;
12480;SDS011;6305;48.398;11.762;2023-03-14T02:20:47;1.50;;;0.40;;
12480;SDS011;6305;48.398;11.762;2023-03-14T02:23:20;0.93;;;0.50;;
12480;SDS011;6305;48.398;11.762;2023-03-14T02:25:57;2.35;;;0.90;;
12480;SDS011;6305;48.398;11.762;2023-03-14T02:28:29;5.15;;;0.63;;
12480;SDS011;6305;48.398;11.762;2023-03-14T02:30:59;0.50;;;0.50;;
12480;SDS011;6305;48.398;11.762;2023-03-14T02:33:26;3.00;;;0.68;;
12480;SDS011;6305;48.398;11.762;2023-03-14T02:35:56;1.58;;;0.55;;
12480;SDS011;6305;48.398;11.762;2023-03-14T02:38:27;1.88;;;0.55;;
12480;SDS011;6305;48.398;11.762;2023-03-14T02:41:00;0.82;;;0.50;;
12480;SDS011;6305;48.398;11.762;2023-03-14T02:43:32;0.60;;;0.50;;
12480;SDS011;6305;48.398;11.762;2023-03-14T02:46:02;1.10;;;0.50;;
12480;SDS011;6305;48.398;11.762;2023-03-14T02:48:33;2.05;;;0.70;;
12480;SDS011;6305;48.398;11.762;2023-03-14T02:51:04;1.48;;;0.40;;
12480;SDS011;6305;48.398;11.762;2023-03-14T02:53:32;0.63;;;0.50;;
12480;SDS011;6305;48.398;11.762;2023-03-14T02:56:06;1.08;;;0.40;;
12480;SDS011;6305;48.398;11.762;2023-03-14T02:58:36;1.73;;;0.80;;
12480;SDS011;6305;48.398;11.762;2023-03-14T03:01:14;1.55;;;0.77;;
12480;SDS011;6305;48.398;11.762;2023-03-14T03:03:42;2.38;;;0.82;;
12480;SDS011;6305;48.398;11.762;2023-03-14T03:06:09;1.58;;;0.70;;
12480;SDS011;6305;48.398;11.762;2023-03-14T03:08:37;0.52;;;0.50;;
12480;SDS011;6305;48.398;11.762;2023-03-14T03:11:05;0.90;;;0.50;;
12480;SDS011;6305;48.398;11.762;2023-03-14T03:13:33;0.73;;;0.60;;
12480;SDS011;6305;48.398;11.762;2023-03-14T03:16:04;0.80;;;0.55;;
12480;SDS011;6305;48.398;11.762;2023-03-14T03:18:33;1.33;;;0.60;;
12480;SDS011;6305;48.398;11.762;2023-03-14T03:21:00;1.67;;;0.60;;
12480;SDS011;6305;48.398;11.762;2023-03-14T03:23:28;2.03;;;0.63;;
12480;SDS011;6305;48.398;11.762;2023-03-14T03:25:56;1.08;;;0.50;;
12480;SDS011;6305;48.398;11.762;2023-03-14T03:28:23;1.30;;;0.63;;
12480;SDS011;6305;48.398;11.762;2023-03-14T03:30:51;3.08;;;0.60;;
12480;SDS011;6305;48.398;11.762;2023-03-14T03:33:20;1.58;;;0.47;;
12480;SDS011;6305;48.398;11.762;2023-03-14T03:35:48;1.10;;;0.60;;
12480;SDS011;6305;48.398;11.762;2023-03-14T03:38:22;0.73;;;0.50;;
12480;SDS011;6305;48.398;11.762;2023-03-14T03:40:52;0.45;;;0.45;;
12480;SDS011;6305;48.398;11.762;2023-03-14T03:43:22;1.00;;;0.60;;
12480;SDS011;6305;48.398;11.762;2023-03-14T03:45:49;0.52;;;0.50;;
12480;SDS011;6305;48.398;11.762;2023-03-14T03:48:17;1.35;;;0.50;;
12480;SDS011;6305;48.398;11.762;2023-03-14T03:50:45;0.55;;;0.55;;
12480;SDS011;6305;48.398;11.762;2023-03-14T03:53:16;0.77;;;0.47;;
12480;SDS011;6305;48.398;11.762;2023-03-14T03:55:43;0.60;;;0.57;;
12480;SDS011;6305;48.398;11.762;2023-03-14T03:58:10;1.15;;;0.60;;
12480;SDS011;6305;48.398;11.762;2023-03-14T04:00:38;0.55;;;0.55;;
12480;SDS011;6305;48.398;11.762;2023-03-14T04:03:05;1.20;;;0.60;;
12480;SDS011;6305;48.398;11.762;2023-03-14T04:05:35;0.93;;;0.50;;
12480;SDS011;6305;48.398;11.762;2023-03-14T04:08:07;0.50;;;0.43;;
12480;SDS011;6305;48.398;11.762;2023-03-14T04:10:34;0.47;;;0.47;;
12480;SDS011;6305;48.398;11.762;2023-03-14T04:13:11;0.63;;;0.47;;
12480;SDS011;6305;48.398;11.762;2023-03-14T04:15:39;0.60;;;0.60;;
12480;SDS011;6305;48.398;11.762;2023-03-14T04:18:25;1.30;;;0.40;;
12480;SDS011;6305;48.398;11.762;2023-03-14T04:20:54;0.52;;;0.50;;
12480;SDS011;6305;48.398;11.762;2023-03-14T04:23:26;1.00;;;0.50;;
12480;SDS011;6305;48.398;11.762;2023-03-14T04:25:54;0.52;;;0.50;;
12480;SDS011;6305;48.398;11.762;2023-03-14T04:28:23;0.40;;;0.40;;
12480;SDS011;6305;48.398;11.762;2023-03-14T04:30:50;1.40;;;0.60;;
12480;SDS011;6305;48.398;11.762;2023-03-14T04:33:21;0.50;;;0.50;;
12480;SDS011;6305;48.398;11.762;2023-03-14T04:35:54;0.38;;;0.32;;
12480;SDS011;6305;48.398;11.762;2023-03-14T04:38:22;0.30;;;0.30;;
12480;SDS011;6305;48.398;11.762;2023-03-14T04:40:50;2.05;;;0.50;;
12480;SDS011;6305;48.398;11.762;2023-03-14T04:43:19;0.38;;;0.38;;
12480;SDS011;6305;48.398;11.762;2023-03-14T04:45:58;0.82;;;0.40;;
12480;SDS011;6305;48.398;11.762;2023-03-14T04:48:26;0.50;;;0.47;;
12480;SDS011;6305;48.398;11.762;2023-03-14T04:50:55;1.00;;;0.30;;
12480;SDS011;6305;48.398;11.762;2023-03-14T04:53:23;0.47;;;0.43;;
12480;SDS011;6305;48.398;11.762;2023-03-14T04:55:53;0.30;;;0.30;;
12480;SDS011;6305;48.398;11.762;2023-03-14T04:58:23;0.20;;;0.20;;
12480;SDS011;6305;48.398;11.762;2023-03-14T05:00:52;0.38;;;0.32;;
12480;SDS011;6305;48.398;11.762;2023-03-14T05:03:36;0.32;;;0.32;;
12480;SDS011;6305;48.398;11.762;2023-03-14T05:06:20;0.30;;;0.30;;
12480;SDS011;6305;48.398;11.762;2023-03-14T05:09:01;0.30;;;0.30;;
12480;SDS011;6305;48.398;11.762;2023-03-14T05:11:44;0.50;;;0.30;;
12480;SDS011;6305;48.398;11.762;2023-03-14T05:14:30;0.30;;;0.30;;
12480;SDS011;6305;48.398;11.762;2023-03-14T05:17:13;0.30;;;0.30;;
12480;SDS011;6305;48.398;11.762;2023-03-14T05:19:59;0.43;;;0.40;;
12480;SDS011;6305;48.398;11.762;2023-03-14T05:22:49;0.30;;;0.30;;
12480;SDS011;6305;48.398;11.762;2023-03-14T05:25:35;0.30;;;0.30;;
12480;SDS011;6305;48.398;11.762;2023-03-14T05:28:20;0.20;;;0.20;;
12480;SDS011;6305;48.398;11.762;2023-03-14T05:31:05;0.30;;;0.30;;
12480;SDS011;6305;48.398;11.762;2023-03-14T05:33:48;0.30;;;0.30;;
12480;SDS011;6305;48.398;11.762;2023-03-14T05:36:31;0.68;;;0.68;;
12480;SDS011;6305;48.398;11.762;2023-03-14T05:39:12;0.35;;;0.30;;
12480;SDS011;6305;48.398;11.762;2023-03-14T05:41:51;0.40;;;0.40;;
12480;SDS011;6305;48.398;11.762;2023-03-14T05:44:26;0.30;;;0.30;;
12480;SDS011;6305;48.398;11.762;2023-03-14T05:46:54;0.80;;;0.20;;
12480;SDS011;6305;48.398;11.762;2023-03-14T05:49:34;0.30;;;0.30;;
12480;SDS011;6305;48.398;11.762;2023-03-14T05:52:12;0.28;;;0.28;;
12480;SDS011;6305;48.398;11.762;2023-03-14T05:55:04;0.65;;;0.30;;
12480;SDS011;6305;48.398;11.762;2023-03-14T05:57:50;0.28;;;0.28;;
12480;SDS011;6305;48.398;11.762;2023-03-14T06:00:26;0.55;;;0.30;;
12480;SDS011;6305;48.398;11.762;2023-03-14T06:03:10;0.52;;;0.50;;
12480;SDS011;6305;48.398;11.762;2023-03-14T06:05:42;1.20;;;0.60;;
12480;SDS011;6305;48.398;11.762;2023-03-14T06:08:09;0.40;;;0.38;;
12480;SDS011;6305;48.398;11.762;2023-03-14T06:10:38;0.50;;;0.50;;
12480;SDS011;6305;48.398;11.762;2023-03-14T06:13:05;0.57;;;0.40;;
12480;SDS011;6305;48.398;11.762;2023-03-14T06:15:33;0.57;;;0.57;;
12480;SDS011;6305;48.398;11.762;2023-03-14T06:18:02;0.40;;;0.30;;
12480;SDS011;6305;48.398;11.762;2023-03-14T06:20:35;1.05;;;0.40;;
12480;SDS011;6305;48.398;11.762;2023-03-14T06:23:04;0.38;;;0.30;;
12480;SDS011;6305;48.398;11.762;2023-03-14T06:25:32;1.08;;;0.30;;
12480;SDS011;6305;48.398;11.762;2023-03-14T06:28:01;0.30;;;0.30;;
12480;SDS011;6305;48.398;11.762;2023-03-14T06:30:28;0.32;;;0.32;;
12480;SDS011;6305;48.398;11.762;2023-03-14T06:32:56;0.65;;;0.30;;
12480;SDS011;6305;48.398;11.762;2023-03-14T06:35:23;0.32;;;0.30;;
12480;SDS011;6305;48.398;11.762;2023-03-14T06:37:50;0.63;;;0.20;;
12480;SDS011;6305;48.398;11.762;2023-03-14T06:40:18;0.30;;;0.30;;
12480;SDS011;6305;48.398;11.762;2023-03-14T06:42:51;0.38;;;0.38;;
12480;SDS011;6305;48.398;11.762;2023-03-14T06:45:21;0.40;;;0.40;;
12480;SDS011;6305;48.398;11.762;2023-03-14T06:47:49;0.40;;;0.40;;
12480;SDS011;6305;48.398;11.762;2023-03-14T06:50:20;0.47;;;0.40;;
12480;SDS011;6305;48.398;11.762;2023-03-14T06:52:50;0.60;;;0.40;;
12480;SDS011;6305;48.398;11.762;2023-03-14T06:55:23;1.17;;;0.50;;
12480;SDS011;6305;48.398;11.762;2023-03-14T06:57:52;0.73;;;0.50;;
12480;SDS011;6305;48.398;11.762;2023-03-14T07:00:20;0.45;;;0.45;;
12480;SDS011;6305;48.398;11.762;2023-03-14T07:02:52;0.40;;;0.40;;
12480;SDS011;6305;48.398;11.762;2023-03-14T07:05:27;0.68;;;0.68;;
12480;SDS011;6305;48.398;11.762;2023-03-14T07:07:54;1.45;;;0.60;;
12480;SDS011;6305;48.398;11.762;2023-03-14T07:10:22;0.52;;;0.50;;
12480;SDS011;6305;48.398;11.762;2023-03-14T07:12:49;0.40;;;0.40;;
12480;SDS011;6305;48.398;11.762;2023-03-14T07:15:19;1.10;;;0.40;;
12480;SDS011;6305;48.398;11.762;2023-03-14T07:17:52;0.40;;;0.40;;
12480;SDS011;6305;48.398;11.762;2023-03-14T07:20:21;0.82;;;0.52;;
12480;SDS011;6305;48.398;11.762;2023-03-14T07:22:49;0.50;;;0.40;;
12480;SDS011;6305;48.398;11.762;2023-03-14T07:25:20;0.57;;;0.50;;
12480;SDS011;6305;48.398;11.762;2023-03-14T07:27:48;0.47;;;0.40;;
12480;SDS011;6305;48.398;11.762;2023-03-14T07:30:15;0.93;;;0.52;;
12480;SDS011;6305;48.398;11.762;2023-03-14T07:32:42;0.38;;;0.30;;
12480;SDS011;6305;48.398;11.762;2023-03-14T07:35:10;0.77;;;0.40;;
12480;SDS011;6305;48.398;11.762;2023-03-14T07:37:39;0.60;;;0.35;;
12480;SDS011;6305;48.398;11.762;2023-03-14T07:40:09;0.50;;;0.40;;
12480;SDS011;6305;48.398;11.762;2023-03-14T07:42:40;0.30;;;0.30;;
12480;SDS011;6305;48.398;11.762;2023-03-14T07:45:14;0.60;;;0.60;;
12480;SDS011;6305;48.398;11.762;2023-03-14T07:47:41;1.10;;;0.40;;
12480;SDS011;6305;48.398;11.762;2023-03-14T07:50:08;0.30;;;0.30;;
12480;SDS011;6305;48.398;11.762;2023-03-14T07:52:48;0.40;;;0.40;;
12480;SDS011;6305;48.398;11.762;2023-03-14T07:55:16;1.02;;;0.43;;
12480;SDS011;6305;48.398;11.762;2023-03-14T07:57:43;0.88;;;0.50;;
12480;SDS011;6305;48.398;11.762;2023-03-14T08:00:11;0.50;;;0.50;;
12480;SDS011;6305;48.398;11.762;2023-03-14T08:02:39;0.50;;;0.50;;
12480;SDS011;6305;48.398;11.762;2023-03-14T08:05:06;0.30;;;0.30;;
12480;SDS011;6305;48.398;11.762;2023-03-14T08:07:35;0.75;;;0.40;;
12480;SDS011;6305;48.398;11.762;2023-03-14T08:10:03;0.70;;;0.57;;
12480;SDS011;6305;48.398;11.762;2023-03-14T08:12:30;0.35;;;0.30;;
12480;SDS011;6305;48.398;11.762;2023-03-14T08:14:57;0.50;;;0.40;;
12480;SDS011;6305;48.398;11.762;2023-03-14T08:17:25;1.08;;;0.47;;
12480;SDS011;6305;48.398;11.762;2023-03-14T08:19:52;0.45;;;0.43;;
12480;SDS011;6305;48.398;11.762;2023-03-14T08:22:19;0.68;;;0.40;;
12480;SDS011;6305;48.398;11.762;2023-03-14T08:24:48;0.50;;;0.50;;
12480;SDS011;6305;48.398;11.762;2023-03-14T08:27:15;0.35;;;0.32;;
12480;SDS011;6305;48.398;11.762;2023-03-14T08:29:42;0.35;;;0.35;;
12480;SDS011;6305;48.398;11.762;2023-03-14T08:32:09;2.42;;;0.50;;
12480;SDS011;6305;48.398;11.762;2023-03-14T08:34:35;0.65;;;0.50;;
12480;SDS011;6305;48.398;11.762;2023-03-14T08:37:02;0.32;;;0.32;;
12480;SDS011;6305;48.398;11.762;2023-03-14T08:39:30;0.30;;;0.30;;
12480;SDS011;6305;48.398;11.762;2023-03-14T08:41:58;1.73;;;0.40;;
12480;SDS011;6305;48.398;11.762;2023-03-14T08:44:25;0.63;;;0.50;;
12480;SDS011;6305;48.398;11.762;2023-03-14T08:46:52;0.52;;;0.40;;
12480;SDS011;6305;48.398;11.762;2023-03-14T08:49:19;0.40;;;0.35;;
12480;SDS011;6305;48.398;11.762;2023-03-14T08:51:46;0.40;;;0.40;;
12480;SDS011;6305;48.398;11.762;2023-03-14T08:54:13;1.40;;;0.40;;
12480;SDS011;6305;48.398;11.762;2023-03-14T08:56:40;2.50;;;0.40;;
12480;SDS011;6305;48.398;11.762;2023-03-14T08:59:08;2.08;;;0.50;;
12480;SDS011;6305;48.398;11.762;2023-03-14T09:01:36;1.23;;;0.50;;
12480;SDS011;6305;48.398;11.762;2023-03-14T09:04:03;0.32;;;0.32;;
12480;SDS011;6305;48.398;11.762;2023-03-14T09:06:32;0.32;;;0.30;;
12480;SDS011;6305;48.398;11.762;2023-03-14T09:08:59;0.30;;;0.30;;
12480;SDS011;6305;48.398;11.762;2023-03-14T09:11:26;0.30;;;0.30;;
12480;SDS011;6305;48.398;11.762;2023-03-14T09:13:53;0.60;;;0.40;;
12480;SDS011;6305;48.398;11.762;2023-03-14T09:16:22;0.73;;;0.60;;
12480;SDS011;6305;48.398;11.762;2023-03-14T09:18:49;1.50;;;0.40;;
12480;SDS011;6305;48.398;11.762;2023-03-14T09:21:19;0.35;;;0.35;;
12480;SDS011;6305;48.398;11.762;2023-03-14T09:24:11;0.73;;;0.40;;
12480;SDS011;6305;48.398;11.762;2023-03-14T09:26:38;1.92;;;0.40;;
12480;SDS011;6305;48.398;11.762;2023-03-14T09:29:05;0.40;;;0.40;;
12480;SDS011;6305;48.398;11.762;2023-03-14T09:31:34;0.38;;;0.32;;
12480;SDS011;6305;48.398;11.762;2023-03-14T09:34:01;1.35;;;0.32;;
12480;SDS011;6305;48.398;11.762;2023-03-14T09:36:28;1.45;;;0.45;;
12480;SDS011;6305;48.398;11.762;2023-03-14T09:38:55;0.45;;;0.30;;
12480;SDS011;6305;48.398;11.762;2023-03-14T09:41:23;0.50;;;0.40;;
12480;SDS011;6305;48.398;11.762;2023-03-14T09:43:56;0.50;;;0.45;;
12480;SDS011;6305;48.398;11.762;2023-03-14T09:46:28;0.28;;;0.28;;
12480;SDS011;6305;48.398;11.762;2023-03-14T09:48:56;2.40;;;0.60;;
12480;SDS011;6305;48.398;11.762;2023-03-14T09:51:23;0.57;;;0.40;;
12480;SDS011;6305;48.398;11.762;2023-03-14T09:53:51;0.30;;;0.30;;
12480;SDS011;6305;48.398;11.762;2023-03-14T09:56:19;0.40;;;0.30;;
12480;SDS011;6305;48.398;11.762;2023-03-14T09:58:51;1.35;;;0.30;;
12480;SDS011;6305;48.398;11.762;2023-03-14T10:01:22;0.63;;;0.40;;
12480;SDS011;6305;48.398;11.762;2023-03-14T10:03:53;0.63;;;0.40;;
12480;SDS011;6305;48.398;11.762;2023-03-14T10:06:22;0.40;;;0.40;;
12480;SDS011;6305;48.398;11.762;2023-03-14T10:08:52;1.23;;;0.60;;
12480;SDS011;6305;48.398;11.762;2023-03-14T10:11:20;1.17;;;0.43;;
12480;SDS011;6305;48.398;11.762;2023-03-14T10:13:48;0.75;;;0.32;;
12480;SDS011;6305;48.398;11.762;2023-03-14T10:16:29;1.02;;;0.52;;
12480;SDS011;6305;48.398;11.762;2023-03-14T10:19:02;1.30;;;0.60;;
12480;SDS011;6305;48.398;11.762;2023-03-14T10:21:31;0.82;;;0.40;;
12480;SDS011;6305;48.398;11.762;2023-03-14T10:24:09;1.20;;;0.47;;
12480;SDS011;6305;48.398;11.762;2023-03-14T10:26:45;1.20;;;0.50;;
12480;SDS011;6305;48.398;11.762;2023-03-14T10:29:16;0.95;;;0.50;;
12480;SDS011;6305;48.398;11.762;2023-03-14T10:31:47;1.02;;;0.57;;
12480;SDS011;6305;48.398;11.762;2023-03-14T10:34:17;0.70;;;0.40;;
12480;SDS011;6305;48.398;11.762;2023-03-14T10:36:53;0.47;;;0.47;;
12480;SDS011;6305;48.398;11.762;2023-03-14T10:39:22;0.75;;;0.40;;
12480;SDS011;6305;48.398;11.762;2023-03-14T10:41:53;1.83;;;0.50;;
12480;SDS011;6305;48.398;11.762;2023-03-14T10:44:24;1.52;;;0.43;;
12480;SDS011;6305;48.398;11.762;2023-03-14T10:46:55;0.47;;;0.30;;
12480;SDS011;6305;48.398;11.762;2023-03-14T10:49:26;1.15;;;0.40;;
12480;SDS011;6305;48.398;11.762;2023-03-14T10:51:54;0.40;;;0.40;;
12480;SDS011;6305;48.398;11.762;2023-03-14T10:54:22;0.80;;;0.40;;
12480;SDS011;6305;48.398;11.762;2023-03-14T10:56:56;0.30;;;0.30;;
12480;SDS011;6305;48.398;11.762;2023-03-14T10:59:25;0.65;;;0.50;;
12480;SDS011;6305;48.398;11.762;2023-03-14T11:01:55;0.50;;;0.38;;
12480;SDS011;6305;48.398;11.762;2023-03-14T11:04:37;0.60;;;0.38;;
12480;SDS011;6305;48.398;11.762;2023-03-14T11:07:19;0.45;;;0.45;;
12480;SDS011;6305;48.398;11.762;2023-03-14T11:09:54;1.20;;;0.30;;
12480;SDS011;6305;48.398;11.762;2023-03-14T11:12:30;0.40;;;0.40;;
12480;SDS011;6305;48.398;11.762;2023-03-14T11:15:09;1.23;;;0.50;;
12480;SDS011;6305;48.398;11.762;2023-03-14T11:17:46;0.28;;;0.28;;
12480;SDS011;6305;48.398;11.762;2023-03-14T11:20:25;0.50;;;0.25;;
12480;SDS011;6305;48.398;11.762;2023-03-14T11:23:07;0.73;;;0.40;;
12480;SDS011;6305;48.398;11.762;2023-03-14T11:25:41;0.75;;;0.50;;
12480;SDS011;6305;48.398;11.762;2023-03-14T11:28:17;0.55;;;0.40;;
12480;SDS011;6305;48.398;11.762;2023-03-14T11:30:50;1.17;;;0.40;;
12480;SDS011;6305;48.398;11.762;2023-03-14T11:33:20;0.35;;;0.30;;
12480;SDS011;6305;48.398;11.762;2023-03-14T11:35:53;0.95;;;0.40;;
12480;SDS011;6305;48.398;11.762;2023-03-14T11:38:28;1.85;;;0.43;;
12480;SDS011;6305;48.398;11.762;2023-03-14T11:40:59;0.82;;;0.40;;
12480;SDS011;6305;48.398;11.762;2023-03-14T11:43:28;1.23;;;0.30;;
12480;SDS011;6305;48.398;11.762;2023-03-14T11:46:01;0.35;;;0.35;;
12480;SDS011;6305;48.398;11.762;2023-03-14T11:48:36;0.47;;;0.40;;
12480;SDS011;6305;48.398;11.762;2023-03-14T11:51:07;0.30;;;0.30;;
12480;SDS011;6305;48.398;11.762;2023-03-14T11:53:43;0.30;;;0.20;;
12480;SDS011;6305;48.398;11.762;2023-03-14T11:56:17;0.40;;;0.40;;
12480;SDS011;6305;48.398;11.762;2023-03-14T11:58:51;0.70;;;0.30;;
12480;SDS011;6305;48.398;11.762;2023-03-14T12:01:24;0.30;;;0.30;;
12480;SDS011;6305;48.398;11.762;2023-03-14T12:03:58;0.85;;;0.20;;
12480;SDS011;6305;48.398;11.762;2023-03-14T12:06:31;0.47;;;0.40;;
12480;SDS011;6305;48.398;11.762;2023-03-14T12:09:06;1.08;;;0.30;;
12480;SDS011;6305;48.398;11.762;2023-03-14T12:11:36;0.60;;;0.30;;
12480;SDS011;6305;48.398;11.762;2023-03-14T12:14:17;0.30;;;0.30;;
12480;SDS011;6305;48.398;11.762;2023-03-14T12:16:48;1.15;;;0.30;;
12480;SDS011;6305;48.398;11.762;2023-03-14T12:19:31;0.55;;;0.40;;
12480;SDS011;6305;48.398;11.762;2023-03-14T12:22:08;1.20;;;0.45;;
12480;SDS011;6305;48.398;11.762;2023-03-14T12:24:59;0.40;;;0.30;;
12480;SDS011;6305;48.398;11.762;2023-03-14T12:27:48;0.90;;;0.30;;
12480;SDS011;6305;48.398;11.762;2023-03-14T12:30:30;0.88;;;0.30;;
12480;SDS011;6305;48.398;11.762;2023-03-14T12:33:22;0.75;;;0.50;;
12480;SDS011;6305;48.398;11.762;2023-03-14T12:35:57;0.75;;;0.40;;
12480;SDS011;6305;48.398;11.762;2023-03-14T12:38:29;0.30;;;0.30;;
12480;SDS011;6305;48.398;11.762;2023-03-14T12:41:11;0.52;;;0.30;;
12480;SDS011;6305;48.398;11.762;2023-03-14T12:43:41;1.17;;;0.45;;
12480;SDS011;6305;48.398;11.762;2023-03-14T12:46:09;0.50;;;0.50;;
12480;SDS011;6305;48.398;11.762;2023-03-14T12:48:46;0.40;;;0.40;;
12480;SDS011;6305;48.398;11.762;2023-03-14T12:51:15;0.38;;;0.35;;
12480;SDS011;6305;48.398;11.762;2023-03-14T12:56:35;0.50;;;0.50;;
12480;SDS011;6305;48.398;11.762;2023-03-14T13:01:59;0.82;;;0.40;;
12480;SDS011;6305;48.398;11.762;2023-03-14T13:04:43;0.57;;;0.50;;
12480;SDS011;6305;48.398;11.762;2023-03-14T13:07:13;0.38;;;0.38;;
12480;SDS011;6305;48.398;11.762;2023-03-14T13:09:59;0.40;;;0.35;;
12480;SDS011;6305;48.398;11.762;2023-03-14T13:12:29;0.55;;;0.43;;
12480;SDS011;6305;48.398;11.762;2023-03-14T13:15:11;1.85;;;0.40;;
12480;SDS011;6305;48.398;11.762;2023-03-14T13:17:43;0.40;;;0.40;;
12480;SDS011;6305;48.398;11.762;2023-03-14T13:20:15;0.30;;;0.30;;
12480;SDS011;6305;48.398;11.762;2023-03-14T13:22:47;0.50;;;0.40;;
12480;SDS011;6305;48.398;11.762;2023-03-14T13:25:15;0.30;;;0.30;;
12480;SDS011;6305;48.398;11.762;2023-03-14T13:27:43;0.40;;;0.40;;
12480;SDS011;6305;48.398;11.762;2023-03-14T13:30:15;0.25;;;0.20;;
12480;SDS011;6305;48.398;11.762;2023-03-14T13:32:44;0.43;;;0.40;;
12480;SDS011;6305;48.398;11.762;2023-03-14T13:35:20;0.43;;;0.43;;
12480;SDS011;6305;48.398;11.762;2023-03-14T13:37:54;0.40;;;0.40;;
12480;SDS011;6305;48.398;11.762;2023-03-14T13:40:26;0.55;;;0.50;;
12480;SDS011;6305;48.398;11.762;2023-03-14T13:43:03;1.08;;;0.50;;
12480;SDS011;6305;48.398;11.762;2023-03-14T13:45:41;0.30;;;0.30;;
12480;SDS011;6305;48.398;11.762;2023-03-14T13:48:19;0.55;;;0.35;;
12480;SDS011;6305;48.398;11.762;2023-03-14T13:50:52;0.30;;;0.30;;
12480;SDS011;6305;48.398;11.762;2023-03-14T13:53:21;0.47;;;0.20;;
12480;SDS011;6305;48.398;11.762;2023-03-14T13:55:49;0.32;;;0.32;;
12480;SDS011;6305;48.398;11.762;2023-03-14T13:58:21;0.20;;;0.20;;
12480;SDS011;6305;48.398;11.762;2023-03-14T14:00:57;0.47;;;0.35;;
12480;SDS011;6305;48.398;11.762;2023-03-14T14:03:27;0.40;;;0.30;;
12480;SDS011;6305;48.398;11.762;2023-03-14T14:05:57;0.10;;;0.10;;
12480;SDS011;6305;48.398;11.762;2023-03-14T14:08:25;0.30;;;0.30;;
12480;SDS011;6305;48.398;11.762;2023-03-14T14:10:54;0.52;;;0.40;;
12480;SDS011;6305;48.398;11.762;2023-03-14T14:13:25;0.43;;;0.30;;
12480;SDS011;6305;48.398;11.762;2023-03-14T14:15:57;0.55;;;0.30;;
12480;SDS011;6305;48.398;11.762;2023-03-14T14:18:27;0.32;;;0.32;;
12480;SDS011;6305;48.398;11.762;2023-03-14T14:20:57;0.20;;;0.20;;
12480;SDS011;6305;48.398;11.762;2023-03-14T14:23:25;0.30;;;0.30;;
12480;SDS011;6305;48.398;11.762;2023-03-14T14:25:55;0.20;;;0.20;;
12480;SDS011;6305;48.398;11.762;2023-03-14T14:28:25;0.20;;;0.20;;
12480;SDS011;6305;48.398;11.762;2023-03-14T14:31:00;0.40;;;0.30;;
12480;SDS011;6305;48.398;11.762;2023-03-14T14:33:29;0.30;;;0.30;;
12480;SDS011;6305;48.398;11.762;2023-03-14T14:36:11;0.30;;;0.30;;
12480;SDS011;6305;48.398;11.762;2023-03-14T14:38:48;0.20;;;0.20;;
12480;SDS011;6305;48.398;11.762;2023-03-14T14:41:16;1.10;;;0.22;;
12480;SDS011;6305;48.398;11.762;2023-03-14T14:43:43;0.45;;;0.20;;
12480;SDS011;6305;48.398;11.762;2023-03-14T14:46:13;0.40;;;0.25;;
12480;SDS011;6305;48.398;11.762;2023-03-14T14:48:44;1.08;;;0.40;;
12480;SDS011;6305;48.398;11.762;2023-03-14T14:51:21;0.30;;;0.30;;
12480;SDS011;6305;48.398;11.762;2023-03-14T14:53:59;0.30;;;0.30;;
12480;SDS011;6305;48.398;11.762;2023-03-14T14:56:29;0.60;;;0.30;;
12480;SDS011;6305;48.398;11.762;2023-03-14T14:58:57;0.30;;;0.30;;
12480;SDS011;6305;48.398;11.762;2023-03-14T15:01:30;0.40;;;0.35;;
12480;SDS011;6305;48.398;11.762;2023-03-14T15:04:00;0.55;;;0.40;;
12480;SDS011;6305;48.398;11.762;2023-03-14T15:06:29;0.52;;;0.45;;
12480;SDS011;6305;48.398;11.762;2023-03-14T15:08:57;0.73;;;0.38;;
12480;SDS011;6305;48.398;11.762;2023-03-14T15:11:25;1.13;;;0.50;;
12480;SDS011;6305;48.398;11.762;2023-03-14T15:13:52;0.40;;;0.40;;
12480;SDS011;6305;48.398;11.762;2023-03-14T15:16:20;0.43;;;0.43;;
12480;SDS011;6305;48.398;11.762;2023-03-14T15:18:50;0.50;;;0.50;;